Highland City, Florida
Current Conditions -  °F | °C
As of 1:48 PM on Friday 24 Oct 2014 (Local Time) from KBOW Reporting Station
Scattered Clouds Scattered Clouds  
Wind Chill: 23°   Ceiling: Unl
Heat Index: 23°   Visibility: 10mi
Dew Point: 13°   Wind: 7mph
Humidity: 53%   Direction: 60°ENE
Pressure: 29.95"   Gusts: NA
Location:  27.97°N, 81.88°W
Report Text: KBOW 241748Z 06006KT 10SM SCT045 23/13 A2995
Loading
Personal Weather Stations






























Interactive Weather Map
Tropical Storm Tracking
New forecast layout! Learn more

10-Day Weather Forecast

Advertisements
Track Severe Weather on mobile